sensor_id;sensor_type;location;lat;lon;timestamp;P1;durP1;ratioP1;P2;durP2;ratioP2
13255;SDS011;37913;48.370;10.930;2022-11-25T00:02:16;73.57;;;33.17;;
13255;SDS011;37913;48.370;10.930;2022-11-25T00:04:45;69.73;;;32.27;;
13255;SDS011;37913;48.370;10.930;2022-11-25T00:07:13;73.17;;;32.63;;
13255;SDS011;37913;48.370;10.930;2022-11-25T00:09:40;69.33;;;31.37;;
13255;SDS011;37913;48.370;10.930;2022-11-25T00:12:07;67.60;;;31.27;;
13255;SDS011;37913;48.370;10.930;2022-11-25T00:14:34;68.80;;;31.67;;
13255;SDS011;37913;48.370;10.930;2022-11-25T00:17:00;69.87;;;32.10;;
13255;SDS011;37913;48.370;10.930;2022-11-25T00:19:27;71.07;;;32.90;;
13255;SDS011;37913;48.370;10.930;2022-11-25T00:21:54;69.20;;;32.87;;
13255;SDS011;37913;48.370;10.930;2022-11-25T00:24:22;72.27;;;37.17;;
13255;SDS011;37913;48.370;10.930;2022-11-25T00:26:49;68.80;;;31.70;;
13255;SDS011;37913;48.370;10.930;2022-11-25T00:29:17;69.87;;;31.83;;
13255;SDS011;37913;48.370;10.930;2022-11-25T00:31:44;75.50;;;34.40;;
13255;SDS011;37913;48.370;10.930;2022-11-25T00:34:12;70.20;;;31.83;;
13255;SDS011;37913;48.370;10.930;2022-11-25T00:36:39;75.60;;;33.60;;
13255;SDS011;37913;48.370;10.930;2022-11-25T00:39:06;69.83;;;34.53;;
13255;SDS011;37913;48.370;10.930;2022-11-25T00:41:37;75.97;;;33.27;;
13255;SDS011;37913;48.370;10.930;2022-11-25T00:44:23;67.80;;;31.87;;
13255;SDS011;37913;48.370;10.930;2022-11-25T00:47:04;68.47;;;31.63;;
13255;SDS011;37913;48.370;10.930;2022-11-25T00:49:33;66.30;;;31.73;;
13255;SDS011;37913;48.370;10.930;2022-11-25T00:52:01;68.47;;;32.33;;
13255;SDS011;37913;48.370;10.930;2022-11-25T00:54:28;73.17;;;32.40;;
13255;SDS011;37913;48.370;10.930;2022-11-25T00:56:57;68.10;;;32.37;;
13255;SDS011;37913;48.370;10.930;2022-11-25T00:59:24;65.47;;;30.10;;
13255;SDS011;37913;48.370;10.930;2022-11-25T01:01:52;70.47;;;32.70;;
13255;SDS011;37913;48.370;10.930;2022-11-25T01:04:19;67.63;;;31.77;;
13255;SDS011;37913;48.370;10.930;2022-11-25T01:06:46;66.97;;;31.20;;
13255;SDS011;37913;48.370;10.930;2022-11-25T01:09:13;76.07;;;33.53;;
13255;SDS011;37913;48.370;10.930;2022-11-25T01:11:40;74.27;;;33.13;;
13255;SDS011;37913;48.370;10.930;2022-11-25T01:14:09;72.57;;;34.20;;
13255;SDS011;37913;48.370;10.930;2022-11-25T01:16:37;73.67;;;33.63;;
13255;SDS011;37913;48.370;10.930;2022-11-25T01:19:03;71.33;;;33.77;;
13255;SDS011;37913;48.370;10.930;2022-11-25T01:21:31;77.77;;;32.87;;
13255;SDS011;37913;48.370;10.930;2022-11-25T01:23:59;69.50;;;32.60;;
13255;SDS011;37913;48.370;10.930;2022-11-25T01:26:27;73.93;;;32.03;;
13255;SDS011;37913;48.370;10.930;2022-11-25T01:28:55;70.47;;;32.87;;
13255;SDS011;37913;48.370;10.930;2022-11-25T01:31:26;69.63;;;32.50;;
13255;SDS011;37913;48.370;10.930;2022-11-25T01:33:55;67.67;;;32.63;;
13255;SDS011;37913;48.370;10.930;2022-11-25T01:36:23;72.80;;;32.13;;
13255;SDS011;37913;48.370;10.930;2022-11-25T01:38:52;73.57;;;33.47;;
13255;SDS011;37913;48.370;10.930;2022-11-25T01:41:21;66.73;;;31.83;;
13255;SDS011;37913;48.370;10.930;2022-11-25T01:44:05;65.47;;;31.83;;
13255;SDS011;37913;48.370;10.930;2022-11-25T01:46:41;69.23;;;31.93;;
13255;SDS011;37913;48.370;10.930;2022-11-25T01:49:16;71.90;;;32.40;;
13255;SDS011;37913;48.370;10.930;2022-11-25T01:51:47;68.83;;;32.03;;
13255;SDS011;37913;48.370;10.930;2022-11-25T01:54:19;69.70;;;32.23;;
13255;SDS011;37913;48.370;10.930;2022-11-25T01:56:51;68.23;;;31.23;;
13255;SDS011;37913;48.370;10.930;2022-11-25T01:59:22;68.73;;;30.87;;
13255;SDS011;37913;48.370;10.930;2022-11-25T02:01:51;66.87;;;31.67;;
13255;SDS011;37913;48.370;10.930;2022-11-25T02:04:18;72.70;;;34.60;;
13255;SDS011;37913;48.370;10.930;2022-11-25T02:06:49;85.23;;;40.07;;
13255;SDS011;37913;48.370;10.930;2022-11-25T02:09:21;69.70;;;32.80;;
13255;SDS011;37913;48.370;10.930;2022-11-25T02:11:48;69.43;;;32.43;;
13255;SDS011;37913;48.370;10.930;2022-11-25T02:14:17;72.77;;;32.73;;
13255;SDS011;37913;48.370;10.930;2022-11-25T02:16:46;77.13;;;36.33;;
13255;SDS011;37913;48.370;10.930;2022-11-25T02:19:15;70.70;;;34.50;;
13255;SDS011;37913;48.370;10.930;2022-11-25T02:21:50;74.90;;;33.43;;
13255;SDS011;37913;48.370;10.930;2022-11-25T02:24:21;73.63;;;33.03;;
13255;SDS011;37913;48.370;10.930;2022-11-25T02:26:56;65.67;;;34.63;;
13255;SDS011;37913;48.370;10.930;2022-11-25T02:29:23;74.23;;;35.50;;
13255;SDS011;37913;48.370;10.930;2022-11-25T02:31:51;70.30;;;32.17;;
13255;SDS011;37913;48.370;10.930;2022-11-25T02:34:18;73.03;;;35.53;;
13255;SDS011;37913;48.370;10.930;2022-11-25T02:36:45;66.77;;;31.97;;
13255;SDS011;37913;48.370;10.930;2022-11-25T02:39:12;68.43;;;31.33;;
13255;SDS011;37913;48.370;10.930;2022-11-25T02:41:40;68.17;;;31.33;;
13255;SDS011;37913;48.370;10.930;2022-11-25T02:44:11;71.13;;;32.50;;
13255;SDS011;37913;48.370;10.930;2022-11-25T02:46:38;64.33;;;31.17;;
13255;SDS011;37913;48.370;10.930;2022-11-25T02:49:05;71.17;;;33.43;;
13255;SDS011;37913;48.370;10.930;2022-11-25T02:51:32;67.90;;;31.30;;
13255;SDS011;37913;48.370;10.930;2022-11-25T02:53:59;73.70;;;32.90;;
13255;SDS011;37913;48.370;10.930;2022-11-25T02:56:28;72.87;;;34.13;;
13255;SDS011;37913;48.370;10.930;2022-11-25T02:58:57;70.10;;;33.43;;
13255;SDS011;37913;48.370;10.930;2022-11-25T03:01:26;70.10;;;32.60;;
13255;SDS011;37913;48.370;10.930;2022-11-25T03:03:56;74.17;;;32.30;;
13255;SDS011;37913;48.370;10.930;2022-11-25T03:06:23;65.00;;;32.57;;
13255;SDS011;37913;48.370;10.930;2022-11-25T03:08:50;69.00;;;33.03;;
13255;SDS011;37913;48.370;10.930;2022-11-25T03:11:19;68.90;;;33.80;;
13255;SDS011;37913;48.370;10.930;2022-11-25T03:14:06;62.07;;;30.93;;
13255;SDS011;37913;48.370;10.930;2022-11-25T03:16:34;61.63;;;31.27;;
13255;SDS011;37913;48.370;10.930;2022-11-25T03:19:01;68.13;;;33.17;;
13255;SDS011;37913;48.370;10.930;2022-11-25T03:21:28;64.70;;;31.87;;
13255;SDS011;37913;48.370;10.930;2022-11-25T03:23:54;67.27;;;33.83;;
13255;SDS011;37913;48.370;10.930;2022-11-25T03:26:21;66.20;;;31.30;;
13255;SDS011;37913;48.370;10.930;2022-11-25T03:28:50;68.30;;;32.33;;
13255;SDS011;37913;48.370;10.930;2022-11-25T03:31:17;76.13;;;34.43;;
13255;SDS011;37913;48.370;10.930;2022-11-25T03:33:45;68.00;;;31.47;;
13255;SDS011;37913;48.370;10.930;2022-11-25T03:36:12;78.83;;;34.70;;
13255;SDS011;37913;48.370;10.930;2022-11-25T03:38:39;67.57;;;31.57;;
13255;SDS011;37913;48.370;10.930;2022-11-25T03:41:07;74.77;;;33.80;;
13255;SDS011;37913;48.370;10.930;2022-11-25T03:43:34;67.53;;;31.90;;
13255;SDS011;37913;48.370;10.930;2022-11-25T03:46:01;74.37;;;34.03;;
13255;SDS011;37913;48.370;10.930;2022-11-25T03:48:27;67.43;;;31.43;;
13255;SDS011;37913;48.370;10.930;2022-11-25T03:50:56;70.73;;;32.20;;
13255;SDS011;37913;48.370;10.930;2022-11-25T03:53:23;96.33;;;38.23;;
13255;SDS011;37913;48.370;10.930;2022-11-25T03:55:50;69.30;;;31.93;;
13255;SDS011;37913;48.370;10.930;2022-11-25T03:58:17;61.47;;;29.87;;
13255;SDS011;37913;48.370;10.930;2022-11-25T04:00:44;73.93;;;32.20;;
13255;SDS011;37913;48.370;10.930;2022-11-25T04:03:10;72.03;;;33.17;;
13255;SDS011;37913;48.370;10.930;2022-11-25T04:05:37;71.50;;;32.37;;
13255;SDS011;37913;48.370;10.930;2022-11-25T04:08:06;70.77;;;32.40;;
13255;SDS011;37913;48.370;10.930;2022-11-25T04:10:32;70.40;;;32.00;;
13255;SDS011;37913;48.370;10.930;2022-11-25T04:12:59;70.53;;;31.43;;
13255;SDS011;37913;48.370;10.930;2022-11-25T04:15:25;69.60;;;32.23;;
13255;SDS011;37913;48.370;10.930;2022-11-25T04:17:52;69.67;;;32.33;;
13255;SDS011;37913;48.370;10.930;2022-11-25T04:20:19;77.87;;;33.43;;
13255;SDS011;37913;48.370;10.930;2022-11-25T04:22:46;67.17;;;31.60;;
13255;SDS011;37913;48.370;10.930;2022-11-25T04:25:14;76.47;;;34.47;;
13255;SDS011;37913;48.370;10.930;2022-11-25T04:27:41;65.30;;;30.97;;
13255;SDS011;37913;48.370;10.930;2022-11-25T04:30:09;74.97;;;33.80;;
13255;SDS011;37913;48.370;10.930;2022-11-25T04:32:36;66.17;;;31.73;;
13255;SDS011;37913;48.370;10.930;2022-11-25T04:35:03;75.87;;;33.33;;
13255;SDS011;37913;48.370;10.930;2022-11-25T04:37:31;65.47;;;31.10;;
13255;SDS011;37913;48.370;10.930;2022-11-25T04:40:00;66.63;;;31.73;;
13255;SDS011;37913;48.370;10.930;2022-11-25T04:42:28;65.13;;;31.13;;
13255;SDS011;37913;48.370;10.930;2022-11-25T04:44:58;74.73;;;32.87;;
13255;SDS011;37913;48.370;10.930;2022-11-25T04:47:27;72.40;;;33.27;;
13255;SDS011;37913;48.370;10.930;2022-11-25T04:50:00;71.50;;;32.87;;
13255;SDS011;37913;48.370;10.930;2022-11-25T04:52:27;66.83;;;31.87;;
13255;SDS011;37913;48.370;10.930;2022-11-25T04:54:54;68.37;;;32.17;;
13255;SDS011;37913;48.370;10.930;2022-11-25T04:57:21;70.20;;;31.67;;
13255;SDS011;37913;48.370;10.930;2022-11-25T04:59:49;69.43;;;33.03;;
13255;SDS011;37913;48.370;10.930;2022-11-25T05:02:16;71.07;;;32.00;;
13255;SDS011;37913;48.370;10.930;2022-11-25T05:04:45;143.10;;;63.13;;
13255;SDS011;37913;48.370;10.930;2022-11-25T05:07:13;70.60;;;32.93;;
13255;SDS011;37913;48.370;10.930;2022-11-25T05:09:41;65.40;;;31.17;;
13255;SDS011;37913;48.370;10.930;2022-11-25T05:12:10;69.10;;;31.63;;
13255;SDS011;37913;48.370;10.930;2022-11-25T05:14:39;67.60;;;31.77;;
13255;SDS011;37913;48.370;10.930;2022-11-25T05:17:09;68.47;;;31.90;;
13255;SDS011;37913;48.370;10.930;2022-11-25T05:19:40;69.97;;;32.23;;
13255;SDS011;37913;48.370;10.930;2022-11-25T05:22:09;65.13;;;30.97;;
13255;SDS011;37913;48.370;10.930;2022-11-25T05:24:36;72.57;;;33.17;;
13255;SDS011;37913;48.370;10.930;2022-11-25T05:27:04;69.10;;;32.33;;
13255;SDS011;37913;48.370;10.930;2022-11-25T05:29:31;77.17;;;35.47;;
13255;SDS011;37913;48.370;10.930;2022-11-25T05:31:58;75.00;;;34.47;;
13255;SDS011;37913;48.370;10.930;2022-11-25T05:34:28;74.53;;;32.57;;
13255;SDS011;37913;48.370;10.930;2022-11-25T05:36:55;74.07;;;33.67;;
13255;SDS011;37913;48.370;10.930;2022-11-25T05:39:23;71.63;;;32.87;;
13255;SDS011;37913;48.370;10.930;2022-11-25T05:41:50;76.10;;;34.17;;
13255;SDS011;37913;48.370;10.930;2022-11-25T05:44:17;70.93;;;32.50;;
13255;SDS011;37913;48.370;10.930;2022-11-25T05:46:44;71.50;;;32.70;;
13255;SDS011;37913;48.370;10.930;2022-11-25T05:49:13;78.60;;;34.97;;
13255;SDS011;37913;48.370;10.930;2022-11-25T05:51:41;72.27;;;33.47;;
13255;SDS011;37913;48.370;10.930;2022-11-25T05:54:08;98.27;;;43.83;;
13255;SDS011;37913;48.370;10.930;2022-11-25T05:56:35;83.33;;;36.23;;
13255;SDS011;37913;48.370;10.930;2022-11-25T05:59:02;83.83;;;36.13;;
13255;SDS011;37913;48.370;10.930;2022-11-25T06:01:29;69.63;;;32.30;;
13255;SDS011;37913;48.370;10.930;2022-11-25T06:03:59;73.50;;;32.80;;
13255;SDS011;37913;48.370;10.930;2022-11-25T06:06:27;74.43;;;33.87;;
13255;SDS011;37913;48.370;10.930;2022-11-25T06:08:55;70.10;;;32.70;;
13255;SDS011;37913;48.370;10.930;2022-11-25T06:11:22;70.13;;;32.50;;
13255;SDS011;37913;48.370;10.930;2022-11-25T06:13:50;77.77;;;34.63;;
13255;SDS011;37913;48.370;10.930;2022-11-25T06:16:18;72.57;;;33.30;;
13255;SDS011;37913;48.370;10.930;2022-11-25T06:18:46;67.47;;;32.03;;
13255;SDS011;37913;48.370;10.930;2022-11-25T06:21:13;74.47;;;34.47;;
13255;SDS011;37913;48.370;10.930;2022-11-25T06:23:41;70.73;;;32.20;;
13255;SDS011;37913;48.370;10.930;2022-11-25T06:26:13;71.10;;;33.07;;
13255;SDS011;37913;48.370;10.930;2022-11-25T06:28:41;72.83;;;33.60;;
13255;SDS011;37913;48.370;10.930;2022-11-25T06:31:08;93.97;;;40.00;;
13255;SDS011;37913;48.370;10.930;2022-11-25T06:33:37;73.03;;;33.53;;
13255;SDS011;37913;48.370;10.930;2022-11-25T06:36:05;65.23;;;31.67;;
13255;SDS011;37913;48.370;10.930;2022-11-25T06:38:34;69.20;;;32.10;;
13255;SDS011;37913;48.370;10.930;2022-11-25T06:41:01;71.17;;;32.60;;
13255;SDS011;37913;48.370;10.930;2022-11-25T06:43:30;70.30;;;33.53;;
13255;SDS011;37913;48.370;10.930;2022-11-25T06:46:01;71.50;;;33.40;;
13255;SDS011;37913;48.370;10.930;2022-11-25T06:48:29;67.20;;;32.20;;
13255;SDS011;37913;48.370;10.930;2022-11-25T06:50:57;71.23;;;33.37;;
13255;SDS011;37913;48.370;10.930;2022-11-25T06:53:25;70.40;;;33.30;;
13255;SDS011;37913;48.370;10.930;2022-11-25T06:56:02;69.67;;;33.17;;
13255;SDS011;37913;48.370;10.930;2022-11-25T06:58:32;67.13;;;31.77;;
13255;SDS011;37913;48.370;10.930;2022-11-25T07:01:01;70.83;;;32.77;;
13255;SDS011;37913;48.370;10.930;2022-11-25T07:03:29;71.57;;;33.23;;
13255;SDS011;37913;48.370;10.930;2022-11-25T07:05:57;70.00;;;33.33;;
13255;SDS011;37913;48.370;10.930;2022-11-25T07:08:25;68.37;;;31.97;;
13255;SDS011;37913;48.370;10.930;2022-11-25T07:10:52;70.63;;;32.70;;
13255;SDS011;37913;48.370;10.930;2022-11-25T07:13:19;68.57;;;32.40;;
13255;SDS011;37913;48.370;10.930;2022-11-25T07:15:48;69.70;;;32.97;;
13255;SDS011;37913;48.370;10.930;2022-11-25T07:18:17;71.30;;;33.40;;
13255;SDS011;37913;48.370;10.930;2022-11-25T07:20:44;66.60;;;31.30;;
13255;SDS011;37913;48.370;10.930;2022-11-25T07:23:12;76.90;;;34.43;;
13255;SDS011;37913;48.370;10.930;2022-11-25T07:25:39;68.77;;;32.67;;
13255;SDS011;37913;48.370;10.930;2022-11-25T07:28:06;79.33;;;35.87;;
13255;SDS011;37913;48.370;10.930;2022-11-25T07:30:33;71.40;;;33.30;;
13255;SDS011;37913;48.370;10.930;2022-11-25T07:33:01;74.17;;;34.20;;
13255;SDS011;37913;48.370;10.930;2022-11-25T07:35:28;70.90;;;33.73;;
13255;SDS011;37913;48.370;10.930;2022-11-25T07:37:55;74.17;;;34.10;;
13255;SDS011;37913;48.370;10.930;2022-11-25T07:40:22;73.93;;;33.87;;
13255;SDS011;37913;48.370;10.930;2022-11-25T07:42:49;67.77;;;32.20;;
13255;SDS011;37913;48.370;10.930;2022-11-25T07:45:16;76.57;;;34.83;;
13255;SDS011;37913;48.370;10.930;2022-11-25T07:47:42;76.07;;;34.97;;
13255;SDS011;37913;48.370;10.930;2022-11-25T07:50:11;76.73;;;34.93;;
13255;SDS011;37913;48.370;10.930;2022-11-25T07:52:38;73.93;;;34.10;;
13255;SDS011;37913;48.370;10.930;2022-11-25T07:55:06;71.50;;;33.90;;
13255;SDS011;37913;48.370;10.930;2022-11-25T07:57:33;84.87;;;38.10;;
13255;SDS011;37913;48.370;10.930;2022-11-25T08:00:00;72.73;;;33.33;;
13255;SDS011;37913;48.370;10.930;2022-11-25T08:02:28;87.30;;;38.77;;
13255;SDS011;37913;48.370;10.930;2022-11-25T08:04:55;75.40;;;34.50;;
13255;SDS011;37913;48.370;10.930;2022-11-25T08:07:23;66.50;;;31.00;;
13255;SDS011;37913;48.370;10.930;2022-11-25T08:09:50;74.53;;;33.67;;
13255;SDS011;37913;48.370;10.930;2022-11-25T08:12:17;66.83;;;31.47;;
13255;SDS011;37913;48.370;10.930;2022-11-25T08:14:44;69.00;;;32.33;;
13255;SDS011;37913;48.370;10.930;2022-11-25T08:17:12;68.23;;;32.67;;
13255;SDS011;37913;48.370;10.930;2022-11-25T08:19:38;72.37;;;33.97;;
13255;SDS011;37913;48.370;10.930;2022-11-25T08:22:06;69.80;;;32.37;;
13255;SDS011;37913;48.370;10.930;2022-11-25T08:24:34;72.73;;;33.00;;
13255;SDS011;37913;48.370;10.930;2022-11-25T08:27:01;70.83;;;32.67;;
13255;SDS011;37913;48.370;10.930;2022-11-25T08:29:28;71.70;;;33.33;;
13255;SDS011;37913;48.370;10.930;2022-11-25T08:31:55;73.03;;;33.27;;
13255;SDS011;37913;48.370;10.930;2022-11-25T08:34:22;74.80;;;33.70;;
13255;SDS011;37913;48.370;10.930;2022-11-25T08:36:50;74.45;;;34.10;;
13255;SDS011;37913;48.370;10.930;2022-11-25T08:39:18;71.88;;;32.85;;
13255;SDS011;37913;48.370;10.930;2022-11-25T08:41:47;70.43;;;32.58;;
13255;SDS011;37913;48.370;10.930;2022-11-25T08:44:14;76.75;;;34.08;;
13255;SDS011;37913;48.370;10.930;2022-11-25T08:46:41;80.00;;;35.20;;
13255;SDS011;37913;48.370;10.930;2022-11-25T08:49:09;71.73;;;32.57;;
13255;SDS011;37913;48.370;10.930;2022-11-25T08:51:38;66.17;;;30.87;;
13255;SDS011;37913;48.370;10.930;2022-11-25T08:54:05;74.90;;;33.45;;
13255;SDS011;37913;48.370;10.930;2022-11-25T08:56:33;68.75;;;32.38;;
13255;SDS011;37913;48.370;10.930;2022-11-25T08:59:02;75.35;;;33.13;;
13255;SDS011;37913;48.370;10.930;2022-11-25T09:01:30;78.03;;;34.10;;
13255;SDS011;37913;48.370;10.930;2022-11-25T09:04:00;75.15;;;34.40;;
13255;SDS011;37913;48.370;10.930;2022-11-25T09:06:28;70.70;;;32.55;;
13255;SDS011;37913;48.370;10.930;2022-11-25T09:08:55;73.95;;;34.40;;
13255;SDS011;37913;48.370;10.930;2022-11-25T09:11:23;70.72;;;32.67;;
13255;SDS011;37913;48.370;10.930;2022-11-25T09:13:50;74.95;;;33.63;;
13255;SDS011;37913;48.370;10.930;2022-11-25T09:16:18;75.88;;;35.10;;
13255;SDS011;37913;48.370;10.930;2022-11-25T09:18:46;73.90;;;40.13;;
13255;SDS011;37913;48.370;10.930;2022-11-25T09:21:13;78.07;;;35.75;;
13255;SDS011;37913;48.370;10.930;2022-11-25T09:23:41;77.00;;;35.45;;
13255;SDS011;37913;48.370;10.930;2022-11-25T09:26:12;85.40;;;38.03;;
13255;SDS011;37913;48.370;10.930;2022-11-25T09:28:46;80.53;;;37.33;;
13255;SDS011;37913;48.370;10.930;2022-11-25T09:31:13;79.07;;;37.78;;
13255;SDS011;37913;48.370;10.930;2022-11-25T09:33:42;82.25;;;42.08;;
13255;SDS011;37913;48.370;10.930;2022-11-25T09:36:10;79.68;;;38.30;;
13255;SDS011;37913;48.370;10.930;2022-11-25T09:38:37;85.93;;;39.65;;
13255;SDS011;37913;48.370;10.930;2022-11-25T09:41:06;80.60;;;38.38;;
13255;SDS011;37913;48.370;10.930;2022-11-25T09:43:42;79.15;;;38.03;;
13255;SDS011;37913;48.370;10.930;2022-11-25T09:46:37;77.60;;;37.83;;
13255;SDS011;37913;48.370;10.930;2022-11-25T09:52:12;75.78;;;36.30;;
13255;SDS011;37913;48.370;10.930;2022-11-25T09:54:46;83.53;;;38.95;;
13255;SDS011;37913;48.370;10.930;2022-11-25T09:57:19;75.95;;;36.20;;
13255;SDS011;37913;48.370;10.930;2022-11-25T09:59:53;75.25;;;35.63;;
13255;SDS011;37913;48.370;10.930;2022-11-25T10:02:32;79.15;;;36.17;;
13255;SDS011;37913;48.370;10.930;2022-11-25T10:05:04;77.75;;;36.03;;
13255;SDS011;37913;48.370;10.930;2022-11-25T10:07:38;77.35;;;36.10;;
13255;SDS011;37913;48.370;10.930;2022-11-25T10:10:12;75.30;;;35.13;;
13255;SDS011;37913;48.370;10.930;2022-11-25T10:12:44;73.90;;;34.65;;
13255;SDS011;37913;48.370;10.930;2022-11-25T10:15:15;83.70;;;38.05;;
13255;SDS011;37913;48.370;10.930;2022-11-25T10:17:46;78.63;;;36.72;;
13255;SDS011;37913;48.370;10.930;2022-11-25T10:20:20;79.45;;;37.03;;
13255;SDS011;37913;48.370;10.930;2022-11-25T10:22:49;78.47;;;36.33;;
13255;SDS011;37913;48.370;10.930;2022-11-25T10:25:20;86.38;;;39.05;;
13255;SDS011;37913;48.370;10.930;2022-11-25T10:27:49;86.88;;;40.80;;
13255;SDS011;37913;48.370;10.930;2022-11-25T10:30:20;80.15;;;39.80;;
13255;SDS011;37913;48.370;10.930;2022-11-25T10:32:50;88.32;;;43.78;;
13255;SDS011;37913;48.370;10.930;2022-11-25T10:35:26;85.22;;;43.47;;
13255;SDS011;37913;48.370;10.930;2022-11-25T10:37:57;80.97;;;44.50;;
13255;SDS011;37913;48.370;10.930;2022-11-25T10:40:26;86.28;;;45.85;;
13255;SDS011;37913;48.370;10.930;2022-11-25T10:42:53;82.43;;;45.63;;
13255;SDS011;37913;48.370;10.930;2022-11-25T10:45:21;88.70;;;46.40;;
13255;SDS011;37913;48.370;10.930;2022-11-25T10:51:01;82.30;;;43.17;;
13255;SDS011;37913;48.370;10.930;2022-11-25T10:53:34;86.10;;;43.35;;
13255;SDS011;37913;48.370;10.930;2022-11-25T10:56:06;80.50;;;41.45;;
13255;SDS011;37913;48.370;10.930;2022-11-25T10:58:36;85.03;;;42.38;;
13255;SDS011;37913;48.370;10.930;2022-11-25T11:01:06;83.50;;;41.55;;
13255;SDS011;37913;48.370;10.930;2022-11-25T11:03:40;82.22;;;40.28;;
13255;SDS011;37913;48.370;10.930;2022-11-25T11:08:57;77.82;;;38.72;;
13255;SDS011;37913;48.370;10.930;2022-11-25T11:11:24;81.45;;;40.22;;
13255;SDS011;37913;48.370;10.930;2022-11-25T11:14:10;81.75;;;39.75;;
13255;SDS011;37913;48.370;10.930;2022-11-25T11:16:39;81.90;;;39.22;;
13255;SDS011;37913;48.370;10.930;2022-11-25T11:21:54;80.47;;;39.63;;
13255;SDS011;37913;48.370;10.930;2022-11-25T11:24:25;80.82;;;39.33;;
13255;SDS011;37913;48.370;10.930;2022-11-25T11:27:04;76.72;;;37.50;;
13255;SDS011;37913;48.370;10.930;2022-11-25T11:29:32;83.72;;;38.92;;
13255;SDS011;37913;48.370;10.930;2022-11-25T11:32:00;80.05;;;38.15;;
13255;SDS011;37913;48.370;10.930;2022-11-25T11:34:34;80.32;;;37.90;;
13255;SDS011;37913;48.370;10.930;2022-11-25T11:37:18;85.40;;;39.38;;
13255;SDS011;37913;48.370;10.930;2022-11-25T11:40:02;79.72;;;37.60;;
13255;SDS011;37913;48.370;10.930;2022-11-25T11:42:59;82.03;;;39.00;;
13255;SDS011;37913;48.370;10.930;2022-11-25T11:45:36;82.97;;;38.83;;
13255;SDS011;37913;48.370;10.930;2022-11-25T11:48:20;80.70;;;38.33;;
13255;SDS011;37913;48.370;10.930;2022-11-25T11:50:55;77.55;;;37.00;;
13255;SDS011;37913;48.370;10.930;2022-11-25T11:53:30;82.38;;;38.08;;
13255;SDS011;37913;48.370;10.930;2022-11-25T11:56:10;94.20;;;41.92;;
13255;SDS011;37913;48.370;10.930;2022-11-25T11:58:48;89.93;;;39.90;;
13255;SDS011;37913;48.370;10.930;2022-11-25T12:01:34;87.78;;;39.30;;
13255;SDS011;37913;48.370;10.930;2022-11-25T12:04:11;84.40;;;38.10;;
13255;SDS011;37913;48.370;10.930;2022-11-25T12:06:45;79.40;;;35.95;;
13255;SDS011;37913;48.370;10.930;2022-11-25T12:09:22;83.28;;;38.30;;
13255;SDS011;37913;48.370;10.930;2022-11-25T12:11:54;82.53;;;37.65;;
13255;SDS011;37913;48.370;10.930;2022-11-25T12:14:29;79.50;;;36.92;;
13255;SDS011;37913;48.370;10.930;2022-11-25T12:17:04;81.78;;;37.20;;
13255;SDS011;37913;48.370;10.930;2022-11-25T12:19:38;77.50;;;35.40;;
13255;SDS011;37913;48.370;10.930;2022-11-25T12:22:13;77.65;;;35.28;;
13255;SDS011;37913;48.370;10.930;2022-11-25T12:24:47;84.15;;;38.55;;
13255;SDS011;37913;48.370;10.930;2022-11-25T12:27:20;87.55;;;39.33;;
13255;SDS011;37913;48.370;10.930;2022-11-25T12:29:52;82.80;;;38.70;;
13255;SDS011;37913;48.370;10.930;2022-11-25T12:32:34;84.43;;;39.50;;
13255;SDS011;37913;48.370;10.930;2022-11-25T12:35:15;86.32;;;41.58;;
13255;SDS011;37913;48.370;10.930;2022-11-25T12:37:49;90.15;;;42.90;;
13255;SDS011;37913;48.370;10.930;2022-11-25T12:40:23;87.20;;;41.78;;
13255;SDS011;37913;48.370;10.930;2022-11-25T12:42:56;87.53;;;42.10;;
13255;SDS011;37913;48.370;10.930;2022-11-25T12:45:31;81.35;;;40.25;;
13255;SDS011;37913;48.370;10.930;2022-11-25T12:47:59;99.30;;;45.65;;
13255;SDS011;37913;48.370;10.930;2022-11-25T12:50:28;87.72;;;41.97;;
13255;SDS011;37913;48.370;10.930;2022-11-25T12:53:12;84.55;;;40.92;;
13255;SDS011;37913;48.370;10.930;2022-11-25T12:55:49;86.78;;;41.42;;
13255;SDS011;37913;48.370;10.930;2022-11-25T12:58:23;85.40;;;40.35;;
13255;SDS011;37913;48.370;10.930;2022-11-25T13:01:20;87.40;;;40.92;;
13255;SDS011;37913;48.370;10.930;2022-11-25T13:07:20;86.93;;;40.30;;
13255;SDS011;37913;48.370;10.930;2022-11-25T13:12:56;77.75;;;37.30;;
13255;SDS011;37913;48.370;10.930;2022-11-25T13:15:41;79.78;;;38.00;;
13255;SDS011;37913;48.370;10.930;2022-11-25T13:18:10;84.00;;;39.42;;
13255;SDS011;37913;48.370;10.930;2022-11-25T13:20:46;87.03;;;38.15;;
13255;SDS011;37913;48.370;10.930;2022-11-25T13:23:27;82.60;;;37.50;;
13255;SDS011;37913;48.370;10.930;2022-11-25T13:29:04;77.07;;;36.30;;
13255;SDS011;37913;48.370;10.930;2022-11-25T13:31:55;76.85;;;35.60;;
13255;SDS011;37913;48.370;10.930;2022-11-25T13:34:24;76.03;;;36.00;;
13255;SDS011;37913;48.370;10.930;2022-11-25T13:36:54;87.78;;;38.42;;
13255;SDS011;37913;48.370;10.930;2022-11-25T13:39:28;85.60;;;38.75;;
13255;SDS011;37913;48.370;10.930;2022-11-25T13:42:00;81.57;;;37.00;;
13255;SDS011;37913;48.370;10.930;2022-11-25T13:44:30;77.65;;;35.90;;
13255;SDS011;37913;48.370;10.930;2022-11-25T13:49:50;87.50;;;38.45;;
13255;SDS011;37913;48.370;10.930;2022-11-25T13:52:26;84.35;;;37.90;;
13255;SDS011;37913;48.370;10.930;2022-11-25T13:55:00;94.55;;;40.20;;
13255;SDS011;37913;48.370;10.930;2022-11-25T13:57:32;85.25;;;38.28;;
13255;SDS011;37913;48.370;10.930;2022-11-25T14:00:04;77.32;;;35.47;;
13255;SDS011;37913;48.370;10.930;2022-11-25T14:02:36;80.80;;;36.67;;
13255;SDS011;37913;48.370;10.930;2022-11-25T14:08:19;82.63;;;36.72;;
13255;SDS011;37913;48.370;10.930;2022-11-25T14:10:53;78.82;;;35.80;;
13255;SDS011;37913;48.370;10.930;2022-11-25T14:13:37;76.70;;;35.33;;
13255;SDS011;37913;48.370;10.930;2022-11-25T14:16:25;75.03;;;34.97;;
13255;SDS011;37913;48.370;10.930;2022-11-25T14:22:05;77.57;;;35.85;;
13255;SDS011;37913;48.370;10.930;2022-11-25T14:24:44;76.90;;;35.70;;
13255;SDS011;37913;48.370;10.930;2022-11-25T14:27:15;81.03;;;36.20;;
13255;SDS011;37913;48.370;10.930;2022-11-25T14:29:45;77.53;;;35.13;;
13255;SDS011;37913;48.370;10.930;2022-11-25T14:32:20;80.18;;;35.67;;
13255;SDS011;37913;48.370;10.930;2022-11-25T14:34:53;74.32;;;35.10;;
13255;SDS011;37913;48.370;10.930;2022-11-25T14:37:25;81.28;;;36.22;;
13255;SDS011;37913;48.370;10.930;2022-11-25T14:39:58;82.85;;;37.38;;
13255;SDS011;37913;48.370;10.930;2022-11-25T14:42:31;77.53;;;34.88;;
13255;SDS011;37913;48.370;10.930;2022-11-25T14:45:00;80.43;;;35.97;;
13255;SDS011;37913;48.370;10.930;2022-11-25T14:47:30;80.75;;;36.45;;
13255;SDS011;37913;48.370;10.930;2022-11-25T14:49:58;82.10;;;37.03;;
13255;SDS011;37913;48.370;10.930;2022-11-25T14:52:26;83.47;;;37.42;;
13255;SDS011;37913;48.370;10.930;2022-11-25T14:54:55;85.25;;;38.63;;
13255;SDS011;37913;48.370;10.930;2022-11-25T14:57:24;83.60;;;37.75;;